Time;durP1;ratioP1;P1;durP2;ratioP2;P2;SDS_P1;SDS_P2;PMS_P1;PMS_P2;Temp;Humidity;BMP_temperature;BMP_pressure;BME280_temperature;BME280_humidity;BME280_pressure;Samples;Min_cycle;Max_cycle;Signal;HPM_P1;HPM_P2
2023/08/06 00:01:00;;;;;;;8.60;1.63;;;13.10;99.90;;;12.33;100.00;101454.56;4170135;28;20105;-76
2023/08/06 00:03:01;;;;;;;5.57;2.08;;;13.00;99.90;;;12.27;100.00;101455.16;4170098;28;20496;-76
2023/08/06 00:05:02;;;;;;;7.20;2.08;;;13.00;99.90;;;12.30;100.00;101468.09;4169859;28;20024;-76
2023/08/06 00:07:04;;;;;;;8.82;1.95;;;13.00;99.90;;;12.19;100.00;101451.44;4174159;28;20083;-76
2023/08/06 00:09:05;;;;;;;7.63;1.75;;;13.00;99.90;;;12.19;100.00;101455.88;4152347;28;20553;-76
2023/08/06 00:11:05;;;;;;;5.60;1.50;;;12.90;99.90;;;12.19;100.00;101450.59;4162964;28;20033;-76
2023/08/06 00:13:06;;;;;;;6.75;1.63;;;12.90;99.90;;;12.29;100.00;101456.66;4155093;28;20037;-76
2023/08/06 00:15:08;;;;;;;6.25;1.50;;;12.90;99.90;;;12.26;100.00;101459.63;4139668;28;20100;-76
2023/08/06 00:17:09;;;;;;;6.90;1.50;;;12.90;99.90;;;12.23;100.00;101459.06;4179214;28;20030;-76
2023/08/06 00:19:11;;;;;;;15.02;2.70;;;12.90;99.90;;;12.19;100.00;101462.00;4152153;28;20138;-76
2023/08/06 00:21:14;;;;;;;6.03;1.60;;;12.90;99.90;;;12.22;100.00;101466.16;4169539;28;20024;-76
2023/08/06 00:23:15;;;;;;;6.10;1.50;;;12.90;99.90;;;12.20;100.00;101468.16;4169803;28;20026;-75
2023/08/06 00:25:16;;;;;;;11.15;1.70;;;12.90;99.90;;;12.23;100.00;101467.00;4169705;28;20025;-76
2023/08/06 00:27:17;;;;;;;7.85;1.40;;;12.90;99.90;;;12.18;100.00;101465.63;4169866;28;20116;-76
2023/08/06 00:29:18;;;;;;;8.02;1.95;;;12.90;99.90;;;12.11;100.00;101459.28;4165422;28;20041;-76
2023/08/06 00:31:19;;;;;;;6.68;1.73;;;12.80;99.90;;;12.14;100.00;101464.28;4169851;28;20056;-76
2023/08/06 00:33:21;;;;;;;5.68;1.52;;;12.80;99.90;;;12.09;100.00;101460.44;4176376;28;20025;-76
2023/08/06 00:35:22;;;;;;;6.32;1.75;;;12.80;99.90;;;12.11;100.00;101463.75;4151674;28;20391;-76
2023/08/06 00:37:23;;;;;;;5.80;1.55;;;12.80;99.90;;;12.12;100.00;101460.13;4155041;28;20141;-76
2023/08/06 00:39:23;;;;;;;9.05;1.63;;;12.80;99.90;;;12.11;100.00;101467.22;4169626;28;20026;-75
2023/08/06 00:41:24;;;;;;;7.82;1.95;;;12.80;99.90;;;12.12;100.00;101471.53;4151955;28;20022;-75
2023/08/06 00:43:25;;;;;;;5.80;1.52;;;12.80;99.90;;;12.08;100.00;101470.16;4151909;28;20053;-75
2023/08/06 00:45:27;;;;;;;7.80;1.33;;;12.80;99.90;;;12.05;100.00;101459.03;4165009;28;20025;-75
2023/08/06 00:47:28;;;;;;;5.38;2.33;;;12.80;99.90;;;12.13;100.00;101478.47;4155416;28;20488;-76
2023/08/06 00:49:29;;;;;;;9.05;1.85;;;12.80;99.90;;;12.09;100.00;101471.00;4185850;28;20024;-75
2023/08/06 00:51:31;;;;;;;7.38;1.88;;;12.80;99.90;;;12.08;100.00;101470.16;4158196;28;20106;-76
2023/08/06 00:53:32;;;;;;;9.35;1.75;;;12.80;99.90;;;12.07;100.00;101484.34;4169216;28;20025;-76
2023/08/06 00:55:33;;;;;;;11.15;1.88;;;12.80;99.90;;;12.07;100.00;101473.78;4182162;28;20030;-75
2023/08/06 00:57:35;;;;;;;7.55;1.70;;;12.80;99.90;;;12.06;100.00;101477.44;4157727;28;20056;-76
2023/08/06 00:59:35;;;;;;;9.25;1.60;;;12.70;99.90;;;12.05;100.00;101480.19;4169198;28;20025;-76
2023/08/06 01:01:36;;;;;;;5.63;1.52;;;12.80;99.90;;;12.08;100.00;101472.81;4169134;28;20030;-75
2023/08/06 01:03:37;;;;;;;6.68;1.88;;;12.70;99.90;;;12.11;100.00;101480.44;4167449;28;20037;-75
2023/08/06 01:05:38;;;;;;;8.77;1.40;;;12.80;99.90;;;12.04;100.00;101489.94;4151349;28;20030;-76
2023/08/06 01:08:20;;;;;;;7.07;1.13;;;12.80;99.90;;;12.08;100.00;101495.78;4160492;28;20033;-75
2023/08/06 01:10:42;;;;;;;6.57;1.90;;;12.70;99.90;;;12.15;100.00;101502.16;4139713;28;20033;-75
2023/08/06 01:12:55;;;;;;;10.98;1.88;;;12.70;99.90;;;12.05;100.00;101491.63;4169026;28;20033;-75
2023/08/06 01:15:05;;;;;;;7.20;2.35;;;12.80;99.90;;;12.05;100.00;101498.72;4152780;28;20521;-76
2023/08/06 01:17:07;;;;;;;11.25;1.45;;;12.70;99.90;;;12.01;100.00;101503.44;4177355;28;20399;-76
2023/08/06 01:19:21;;;;;;;6.50;1.83;;;12.70;99.90;;;12.02;100.00;101507.78;4168954;28;20029;-76
2023/08/06 01:21:22;;;;;;;10.50;1.85;;;12.70;99.90;;;11.96;100.00;101505.72;4168693;28;20033;-76
2023/08/06 01:23:24;;;;;;;8.68;1.58;;;12.70;99.90;;;11.98;100.00;101501.09;4156449;28;20021;-75
2023/08/06 01:25:46;;;;;;;9.95;1.88;;;12.70;99.90;;;11.99;100.00;101502.78;4151421;28;20032;-76
2023/08/06 01:27:49;;;;;;;9.80;1.92;;;12.70;99.90;;;12.02;100.00;101512.22;4165320;28;20067;-76
2023/08/06 01:30:16;;;;;;;7.13;1.30;;;12.60;99.90;;;11.96;100.00;101508.34;4168803;28;20421;-76
2023/08/06 01:32:19;;;;;;;9.65;1.85;;;12.60;99.90;;;11.87;100.00;101503.94;4151535;28;20064;-76
2023/08/06 01:34:32;;;;;;;11.95;2.88;;;12.60;99.90;;;11.85;100.00;101499.78;4165845;28;20025;-76
2023/08/06 01:36:34;;;;;;;10.93;1.90;;;12.60;99.90;;;11.83;100.00;101497.28;4151044;28;20038;-75
2023/08/06 01:38:35;;;;;;;6.88;1.58;;;12.60;99.90;;;11.84;100.00;101503.41;4167457;28;20025;-75
2023/08/06 01:40:36;;;;;;;7.93;1.80;;;12.50;99.90;;;11.92;100.00;101508.78;4163908;28;20033;-75
2023/08/06 01:42:37;;;;;;;11.95;2.28;;;12.50;99.90;;;11.98;100.00;101522.25;4171378;28;20032;-76
2023/08/06 01:44:38;;;;;;;9.93;2.17;;;12.60;99.90;;;12.07;100.00;101515.25;4167320;28;20025;-75
2023/08/06 01:46:39;;;;;;;11.90;2.75;;;12.70;99.90;;;12.00;100.00;101514.19;4185213;28;20032;-75
2023/08/06 01:48:40;;;;;;;9.32;1.52;;;12.70;99.90;;;12.03;100.00;101520.03;4154980;28;20069;-75
2023/08/06 01:50:41;;;;;;;12.15;2.75;;;12.70;99.90;;;12.06;100.00;101519.75;4170247;28;20079;-75
2023/08/06 01:52:41;;;;;;;15.90;3.17;;;12.70;99.90;;;12.27;100.00;101518.66;4161980;28;20025;-75
2023/08/06 01:54:42;;;;;;;12.50;2.75;;;12.80;99.90;;;12.20;100.00;101521.88;4168786;28;20029;-75
2023/08/06 01:56:43;;;;;;;20.02;2.92;;;12.80;99.90;;;12.20;100.00;101521.03;4147298;28;20512;-75
2023/08/06 01:58:44;;;;;;;12.40;2.28;;;12.80;99.90;;;12.24;100.00;101516.28;4184900;28;20091;-76
2023/08/06 02:00:45;;;;;;;11.15;1.98;;;12.80;99.90;;;12.31;100.00;101522.66;4161590;28;20026;-76
2023/08/06 02:02:45;;;;;;;7.97;1.80;;;12.90;99.90;;;12.46;100.00;101515.88;4168732;28;20025;-75
2023/08/06 02:04:46;;;;;;;7.70;1.67;;;13.00;99.90;;;12.41;100.00;101513.69;4162979;28;20034;-75
2023/08/06 02:06:47;;;;;;;10.13;2.83;;;13.00;99.90;;;12.44;100.00;101513.38;4169578;28;20393;-76
2023/08/06 02:08:48;;;;;;;12.52;3.15;;;13.00;99.90;;;12.43;100.00;101522.28;4162183;28;20025;-76
2023/08/06 02:10:49;;;;;;;11.50;2.25;;;13.00;99.90;;;12.48;100.00;101522.69;4150992;28;20029;-75
2023/08/06 02:12:50;;;;;;;10.70;2.22;;;13.10;99.90;;;12.45;100.00;101524.81;4134591;28;20165;-76
2023/08/06 02:14:51;;;;;;;12.32;2.67;;;13.10;99.90;;;12.46;100.00;101523.81;4134419;28;20026;-76
2023/08/06 02:16:51;;;;;;;11.73;2.65;;;13.10;99.90;;;12.40;100.00;101532.34;4163875;28;20060;-76
2023/08/06 02:18:52;;;;;;;14.73;2.53;;;13.10;99.90;;;12.38;100.00;101535.16;4185125;28;20091;-75
2023/08/06 02:20:58;;;;;;;11.10;2.50;;;13.10;99.90;;;12.45;100.00;101533.59;4184690;28;20025;-76
2023/08/06 02:22:59;;;;;;;9.10;2.65;;;13.10;99.90;;;12.51;100.00;101529.50;4166942;28;20079;-76
2023/08/06 02:25:00;;;;;;;11.27;2.00;;;13.10;99.90;;;12.54;100.00;101516.81;4167401;28;20026;-76
2023/08/06 02:27:01;;;;;;;10.65;2.63;;;13.10;99.90;;;12.51;100.00;101518.91;4184836;28;20021;-76
2023/08/06 02:29:02;;;;;;;13.30;2.95;;;13.10;99.90;;;12.49;100.00;101526.16;4138701;28;20047;-76
2023/08/06 02:31:03;;;;;;;9.52;2.38;;;13.20;99.90;;;12.49;100.00;101524.34;4169858;28;20026;-76
2023/08/06 02:33:03;;;;;;;9.32;2.17;;;13.10;99.90;;;12.50;100.00;101520.72;4150650;28;20026;-76
2023/08/06 02:35:05;;;;;;;7.55;1.85;;;13.10;99.90;;;12.55;100.00;101522.91;4166689;28;20029;-76
2023/08/06 02:37:06;;;;;;;10.30;2.08;;;13.10;99.90;;;12.48;100.00;101513.94;4184618;28;20061;-76
2023/08/06 02:39:07;;;;;;;6.78;1.88;;;13.10;99.90;;;12.47;100.00;101515.72;4184614;28;20025;-76
2023/08/06 02:41:07;;;;;;;8.30;2.10;;;13.10;99.90;;;12.49;100.00;101512.91;4162509;28;20018;-75
2023/08/06 02:43:08;;;;;;;10.05;1.77;;;13.10;99.90;;;12.48;100.00;101514.75;4168262;28;20033;-76
2023/08/06 02:45:09;;;;;;;9.77;2.38;;;13.10;99.90;;;12.46;100.00;101521.16;4179465;28;20408;-76
2023/08/06 02:47:10;;;;;;;13.73;4.22;;;13.10;99.90;;;12.47;100.00;101522.84;4184625;28;20048;-76
2023/08/06 02:49:11;;;;;;;8.75;2.17;;;13.10;99.90;;;12.41;100.00;101512.84;4162957;28;20540;-76
2023/08/06 02:51:12;;;;;;;14.77;3.22;;;13.10;99.90;;;12.39;100.00;101517.47;4150486;28;20038;-76
2023/08/06 02:53:13;;;;;;;8.80;2.72;;;13.00;99.90;;;12.39;100.00;101518.31;4178688;28;20082;-75
2023/08/06 02:55:13;;;;;;;8.50;1.88;;;13.00;99.90;;;12.36;100.00;101504.53;4153306;28;20060;-76
2023/08/06 02:57:14;;;;;;;8.63;2.63;;;13.00;99.90;;;12.35;100.00;101497.56;4168119;28;20029;-76
2023/08/06 02:59:15;;;;;;;12.77;2.28;;;13.00;99.90;;;12.36;100.00;101507.19;4166864;28;20029;-76
2023/08/06 03:01:16;;;;;;;10.05;2.47;;;13.00;99.90;;;12.31;100.00;101501.47;4160478;28;20485;-76
2023/08/06 03:03:17;;;;;;;15.18;2.45;;;13.00;99.90;;;12.34;100.00;101503.81;4150149;28;20022;-75
2023/08/06 03:05:18;;;;;;;11.18;2.33;;;13.00;99.90;;;12.30;100.00;101503.31;4150285;28;20026;-76
2023/08/06 03:07:19;;;;;;;12.95;1.90;;;12.90;99.90;;;12.25;100.00;101499.44;4143205;28;20080;-76
2023/08/06 03:09:20;;;;;;;7.82;2.00;;;12.90;99.90;;;12.21;100.00;101507.66;4187267;28;20036;-76
2023/08/06 03:11:21;;;;;;;10.18;1.98;;;12.90;99.90;;;12.23;100.00;101512.81;4185592;28;20017;-76
2023/08/06 03:13:22;;;;;;;8.23;1.85;;;12.80;99.90;;;12.16;100.00;101507.28;4171172;28;20029;-76
2023/08/06 03:15:22;;;;;;;9.88;2.20;;;12.80;99.90;;;12.10;100.00;101510.50;4171835;28;20398;-76
2023/08/06 03:17:23;;;;;;;9.45;2.25;;;12.80;99.90;;;12.12;100.00;101519.16;4143948;28;20552;-75
2023/08/06 03:19:24;;;;;;;12.90;2.72;;;12.80;99.90;;;12.10;100.00;101517.59;4170810;28;20071;-75
2023/08/06 03:21:25;;;;;;;8.02;2.28;;;12.80;99.90;;;12.09;100.00;101515.97;4151921;28;20089;-76
2023/08/06 03:23:26;;;;;;;10.15;2.05;;;12.80;99.90;;;12.04;100.00;101511.09;4163918;28;20105;-75
2023/08/06 03:25:27;;;;;;;14.88;3.35;;;12.70;99.90;;;12.06;100.00;101513.59;4153165;28;20026;-75
2023/08/06 03:27:27;;;;;;;12.45;3.03;;;12.70;99.90;;;12.05;100.00;101517.22;4165037;28;20038;-75
2023/08/06 03:29:28;;;;;;;13.85;2.25;;;12.70;99.90;;;12.05;100.00;101517.22;4152828;28;20045;-75
2023/08/06 03:31:29;;;;;;;15.38;3.25;;;12.70;99.90;;;12.09;100.00;101514.16;4158426;28;20104;-75
2023/08/06 03:33:31;;;;;;;10.43;1.92;;;12.70;99.90;;;11.98;100.00;101506.38;4152922;28;20053;-75
2023/08/06 03:35:32;;;;;;;10.00;2.97;;;12.70;99.90;;;12.01;100.00;101515.84;4164665;28;20025;-75
2023/08/06 03:37:32;;;;;;;8.02;2.20;;;12.70;99.90;;;12.00;100.00;101522.13;4154417;28;20042;-75
2023/08/06 03:39:33;;;;;;;13.10;4.00;;;12.60;99.90;;;11.94;100.00;101520.91;4170527;28;20048;-75
2023/08/06 03:41:34;;;;;;;13.10;2.50;;;12.60;99.90;;;12.02;100.00;101523.63;4161454;28;20029;-75
2023/08/06 03:43:35;;;;;;;14.05;2.42;;;12.60;99.90;;;12.07;100.00;101521.38;4170417;28;20028;-75
2023/08/06 03:45:36;;;;;;;7.95;2.38;;;12.70;99.90;;;12.08;100.00;101527.50;4165596;28;20056;-75
2023/08/06 03:47:37;;;;;;;13.52;2.63;;;12.70;99.90;;;12.11;100.00;101525.41;4170431;28;20022;-75
2023/08/06 03:49:37;;;;;;;8.10;1.80;;;12.70;99.90;;;12.11;100.00;101521.94;4170091;28;20029;-75
2023/08/06 03:51:38;;;;;;;8.60;2.88;;;12.70;99.90;;;12.06;100.00;101532.97;4170226;28;20045;-75
2023/08/06 03:53:39;;;;;;;12.75;2.33;;;12.70;99.90;;;11.97;100.00;101523.25;4170282;28;20029;-75
2023/08/06 03:55:40;;;;;;;12.82;2.20;;;12.70;99.90;;;11.93;100.00;101531.59;4170199;28;20029;-75
2023/08/06 03:57:41;;;;;;;11.70;2.53;;;12.60;99.90;;;11.89;100.00;101524.94;4152622;28;20037;-75
2023/08/06 03:59:42;;;;;;;10.02;3.03;;;12.60;99.90;;;11.96;100.00;101534.81;4163156;28;20021;-75
2023/08/06 04:01:42;;;;;;;12.07;2.83;;;12.60;99.90;;;11.95;100.00;101527.84;4154641;28;20481;-75
2023/08/06 04:03:43;;;;;;;8.77;2.17;;;12.60;99.90;;;11.96;100.00;101533.97;4152597;28;20022;-75
2023/08/06 04:05:44;;;;;;;11.15;2.60;;;12.60;99.90;;;11.88;100.00;101520.66;4169736;28;20034;-75
2023/08/06 04:07:45;;;;;;;14.45;2.65;;;12.60;99.90;;;11.86;100.00;101527.88;4162603;28;20467;-75
2023/08/06 04:09:58;;;;;;;15.13;3.05;;;12.60;99.90;;;11.89;100.00;101536.34;4171377;28;20087;-75
2023/08/06 04:12:01;;;;;;;14.10;2.42;;;12.60;99.90;;;11.94;100.00;101542.06;4169933;28;20025;-75
2023/08/06 04:14:02;;;;;;;9.07;2.87;;;12.60;99.90;;;11.90;100.00;101545.97;4170068;28;20065;-75
2023/08/06 04:16:04;;;;;;;11.48;3.38;;;12.60;99.90;;;11.86;100.00;101547.22;4176540;28;20480;-75
2023/08/06 04:18:05;;;;;;;14.82;2.85;;;12.60;99.90;;;11.90;100.00;101538.03;4151967;28;20026;-75
2023/08/06 04:20:06;;;;;;;10.23;2.47;;;12.60;99.90;;;11.86;100.00;101543.72;4156733;28;20033;-75
2023/08/06 04:22:07;;;;;;;14.00;3.38;;;12.50;99.90;;;11.86;100.00;101549.84;4160417;28;20025;-75
2023/08/06 04:24:08;;;;;;;14.70;2.97;;;12.50;99.90;;;11.89;100.00;101543.44;4152347;28;20064;-75
2023/08/06 04:26:09;;;;;;;13.40;3.08;;;12.50;99.90;;;11.79;100.00;101548.78;4166850;28;20021;-75
2023/08/06 04:28:10;;;;;;;11.68;2.72;;;12.50;99.90;;;11.81;100.00;101548.63;4163934;28;20486;-75
2023/08/06 04:30:12;;;;;;;10.68;2.63;;;12.50;99.90;;;11.81;100.00;101545.97;4152021;28;20057;-75
2023/08/06 04:32:13;;;;;;;9.05;3.03;;;12.50;99.90;;;11.82;100.00;101548.50;4152126;28;20114;-75
2023/08/06 04:34:14;;;;;;;13.43;2.85;;;12.50;99.90;;;11.82;100.00;101566.16;4166516;28;20040;-75
2023/08/06 04:36:15;;;;;;;10.38;2.33;;;12.50;99.90;;;11.77;100.00;101566.56;4163898;28;20030;-75
2023/08/06 04:38:15;;;;;;;11.40;2.90;;;12.40;99.90;;;11.74;100.00;101574.78;4151957;28;20556;-75
2023/08/06 04:40:16;;;;;;;10.65;2.45;;;12.40;99.90;;;11.71;100.00;101561.06;4169516;28;20033;-75
2023/08/06 04:42:17;;;;;;;9.43;3.15;;;12.40;99.90;;;11.69;100.00;101569.09;4149598;28;20064;-75
2023/08/06 04:44:18;;;;;;;9.27;3.17;;;12.40;99.90;;;11.62;100.00;101555.59;4169520;28;20052;-75
2023/08/06 04:46:19;;;;;;;7.93;2.35;;;12.40;99.90;;;11.70;100.00;101569.94;4169445;28;20501;-75
2023/08/06 04:48:20;;;;;;;9.88;2.50;;;12.40;99.90;;;11.68;100.00;101558.66;4169433;28;20029;-75
2023/08/06 04:50:21;;;;;;;13.48;2.40;;;12.40;99.90;;;11.80;100.00;101568.13;4165637;28;20033;-75
2023/08/06 04:52:22;;;;;;;12.52;3.05;;;12.40;99.90;;;11.77;100.00;101571.06;4151902;28;20033;-75
2023/08/06 04:54:22;;;;;;;12.80;2.80;;;12.40;99.90;;;11.74;100.00;101566.06;4176799;28;20033;-75
2023/08/06 04:56:23;;;;;;;13.00;3.42;;;12.40;99.90;;;11.73;100.00;101565.22;4157339;28;20037;-75
2023/08/06 04:58:24;;;;;;;9.23;2.55;;;12.30;99.90;;;11.71;100.00;101571.63;4169089;28;20033;-75
2023/08/06 05:00:25;;;;;;;20.65;4.15;;;12.40;99.90;;;11.70;100.00;101565.50;4169272;28;20025;-75
2023/08/06 05:02:26;;;;;;;15.20;3.42;;;12.40;99.90;;;11.76;100.00;101582.59;4169185;28;20030;-75
2023/08/06 05:04:28;;;;;;;10.07;3.13;;;12.40;99.90;;;11.70;100.00;101570.78;4161174;28;20029;-75
2023/08/06 05:06:28;;;;;;;8.55;2.95;;;12.40;99.90;;;11.74;100.00;101579.28;4168687;28;20028;-75
2023/08/06 05:08:29;;;;;;;17.67;2.85;;;12.40;99.90;;;11.71;100.00;101588.28;4151669;28;20033;-75
2023/08/06 05:10:30;;;;;;;16.52;2.60;;;12.40;99.90;;;11.77;100.00;101595.66;4157562;28;20030;-75
2023/08/06 05:12:31;;;;;;;12.07;2.95;;;12.40;99.90;;;11.78;100.00;101599.13;4169107;28;20565;-75
2023/08/06 05:14:32;;;;;;;12.38;2.67;;;12.40;99.90;;;11.83;100.00;101603.00;4147092;28;20022;-75
2023/08/06 05:16:33;;;;;;;13.80;2.63;;;12.50;99.90;;;11.84;100.00;101609.97;4160672;28;20060;-75
2023/08/06 05:18:34;;;;;;;10.02;2.40;;;12.50;99.90;;;11.84;100.00;101602.03;4168889;28;20030;-75
2023/08/06 05:20:40;;;;;;;16.48;2.88;;;12.50;99.90;;;11.86;100.00;101596.59;4159518;28;20028;-75
2023/08/06 05:22:41;;;;;;;13.13;3.10;;;12.50;99.90;;;11.86;100.00;101602.72;4151530;28;20049;-75
2023/08/06 05:24:42;;;;;;;10.25;2.80;;;12.50;99.90;;;11.90;100.00;101604.13;4168245;28;20030;-75
2023/08/06 05:26:46;;;;;;;8.52;2.42;;;12.50;99.90;;;11.88;100.00;101599.97;4168927;28;20024;-75
2023/08/06 05:28:47;;;;;;;15.75;3.45;;;12.50;99.90;;;11.99;100.00;101608.53;4135075;28;20034;-75
2023/08/06 05:30:48;;;;;;;8.73;2.85;;;12.60;99.90;;;11.98;100.00;101604.22;4168841;28;20025;-75
2023/08/06 05:32:48;;;;;;;13.20;2.45;;;12.60;99.90;;;11.98;100.00;101598.94;4167039;28;20022;-75
2023/08/06 05:34:49;;;;;;;12.88;3.97;;;12.60;99.90;;;12.05;100.00;101610.63;4151182;28;20021;-75
2023/08/06 05:36:50;;;;;;;12.18;2.97;;;12.60;99.90;;;12.06;100.00;101608.81;4177986;28;20039;-75
2023/08/06 05:38:51;;;;;;;12.70;3.13;;;12.70;99.90;;;12.12;100.00;101613.53;4155464;28;20037;-75
2023/08/06 05:40:52;;;;;;;9.68;2.15;;;12.70;99.90;;;12.16;100.00;101609.59;4151283;28;20030;-75
2023/08/06 05:42:56;;;;;;;11.48;3.25;;;12.70;99.90;;;12.17;100.00;101617.41;4168740;28;20078;-75
2023/08/06 05:44:56;;;;;;;12.30;2.63;;;12.70;99.90;;;12.18;100.00;101624.34;4168687;28;20032;-75
2023/08/06 05:46:57;;;;;;;14.18;2.70;;;12.80;99.90;;;12.20;100.00;101627.69;4151040;28;20109;-75
2023/08/06 05:48:58;;;;;;;9.30;2.95;;;12.80;99.90;;;12.20;100.00;101627.69;4168479;28;20032;-75
2023/08/06 05:50:59;;;;;;;8.38;2.28;;;12.80;99.90;;;12.17;100.00;101630.63;4168484;28;20022;-75
2023/08/06 05:53:00;;;;;;;15.57;2.97;;;12.80;99.90;;;12.26;100.00;101639.50;4159625;28;20021;-75
2023/08/06 05:55:01;;;;;;;6.43;2.53;;;12.90;99.90;;;12.30;100.00;101640.88;4162905;28;20025;-75
2023/08/06 05:57:02;;;;;;;12.02;3.10;;;12.90;99.90;;;12.30;100.00;101645.34;4170250;28;20032;-75
2023/08/06 05:59:03;;;;;;;12.73;3.03;;;12.90;99.90;;;12.37;100.00;101643.75;4185114;28;20029;-75
2023/08/06 06:01:04;;;;;;;10.93;3.38;;;13.00;99.90;;;12.36;100.00;101647.41;4159108;28;20029;-75
2023/08/06 06:03:04;;;;;;;8.98;2.50;;;13.00;99.90;;;12.37;100.00;101643.75;4151087;28;20038;-75
2023/08/06 06:05:06;;;;;;;11.93;2.88;;;13.00;99.90;;;12.47;100.00;101650.69;4165046;28;20025;-75
2023/08/06 06:07:06;;;;;;;11.63;2.28;;;13.10;99.90;;;12.50;100.00;101646.91;4155648;28;20030;-75
2023/08/06 06:09:07;;;;;;;10.52;2.60;;;13.10;99.90;;;12.54;100.00;101650.94;4158934;28;20091;-76
2023/08/06 06:11:08;;;;;;;15.68;4.40;;;13.10;99.90;;;12.56;100.00;101655.09;4150643;28;20030;-75
2023/08/06 06:13:09;;;;;;;12.25;3.15;;;13.20;99.90;;;12.63;100.00;101658.00;4152847;28;20516;-75
2023/08/06 06:15:10;;;;;;;10.70;2.35;;;13.20;99.90;;;12.65;100.00;101658.69;4155237;28;20405;-75
2023/08/06 06:17:11;;;;;;;12.88;3.75;;;13.30;99.90;;;12.68;100.00;101651.28;4176627;28;20025;-75
2023/08/06 06:19:12;;;;;;;12.60;2.17;;;13.30;99.90;;;12.75;100.00;101654.19;4150803;28;20061;-75
2023/08/06 06:21:13;;;;;;;11.48;2.42;;;13.40;99.90;;;12.83;100.00;101654.28;4148214;28;20397;-75
2023/08/06 06:23:14;;;;;;;9.80;2.55;;;13.40;99.90;;;12.87;100.00;101660.94;4168368;28;20026;-75
2023/08/06 06:25:15;;;;;;;11.80;3.00;;;13.50;99.90;;;12.93;100.00;101668.28;4168371;28;20025;-75
2023/08/06 06:27:16;;;;;;;10.57;2.92;;;13.50;99.90;;;13.00;100.00;101666.69;4168520;28;20153;-75
2023/08/06 06:29:17;;;;;;;11.75;3.10;;;13.60;99.90;;;13.02;100.00;101671.88;4168047;28;20049;-75
2023/08/06 06:31:18;;;;;;;15.32;2.63;;;13.60;99.90;;;13.13;100.00;101671.69;4154454;28;20025;-75
2023/08/06 06:33:18;;;;;;;14.23;2.53;;;13.70;99.90;;;13.17;100.00;101681.81;4150696;28;20033;-75
2023/08/06 06:35:19;;;;;;;9.70;2.30;;;13.80;99.90;;;13.21;100.00;101680.53;4178525;28;20029;-75
2023/08/06 06:37:20;;;;;;;16.00;3.03;;;13.80;99.90;;;13.29;100.00;101677.13;4156968;28;20084;-75
2023/08/06 06:39:21;;;;;;;12.05;2.92;;;13.90;99.90;;;13.35;100.00;101673.06;4171491;28;20499;-75
2023/08/06 06:41:22;;;;;;;8.20;2.47;;;13.90;99.90;;;13.44;100.00;101688.06;4171395;28;20021;-75
2023/08/06 06:43:24;;;;;;;11.10;3.38;;;14.00;99.90;;;13.50;100.00;101682.97;4180880;28;20029;-75
2023/08/06 06:45:24;;;;;;;16.08;3.05;;;14.00;99.90;;;13.54;100.00;101676.38;4157587;28;20029;-75
2023/08/06 06:47:26;;;;;;;11.80;3.00;;;14.10;99.90;;;13.58;100.00;101671.63;4154203;28;20425;-75
2023/08/06 06:49:27;;;;;;;8.88;3.03;;;14.20;99.90;;;13.65;100.00;101699.19;4171149;28;20436;-75
2023/08/06 06:51:27;;;;;;;8.75;2.55;;;14.20;99.90;;;13.70;100.00;101702.22;4171210;28;20033;-75
2023/08/06 06:53:28;;;;;;;11.43;2.90;;;14.30;99.90;;;13.76;100.00;101699.78;4165391;28;20025;-75
2023/08/06 06:55:29;;;;;;;11.85;2.42;;;14.30;99.90;;;13.87;100.00;101693.38;4173737;28;20033;-75
2023/08/06 06:57:30;;;;;;;14.35;3.65;;;14.40;99.90;;;13.97;100.00;101709.22;4187642;28;20032;-75
2023/08/06 06:59:31;;;;;;;14.63;3.40;;;14.50;99.90;;;14.06;100.00;101701.16;4187590;28;20507;-75
2023/08/06 07:01:32;;;;;;;7.68;1.95;;;14.60;99.90;;;14.20;100.00;101697.94;4157655;28;20037;-75
2023/08/06 07:03:33;;;;;;;11.27;1.80;;;14.70;99.90;;;14.37;100.00;101698.88;4152575;28;20081;-75
2023/08/06 07:05:34;;;;;;;8.88;2.72;;;14.80;99.90;;;14.49;100.00;101702.94;4164271;28;20021;-75
2023/08/06 07:07:36;;;;;;;13.15;2.80;;;14.90;99.90;;;14.56;100.00;101708.47;4179679;28;20083;-75
2023/08/06 07:09:37;;;;;;;11.57;3.03;;;15.00;99.90;;;14.61;100.00;101708.81;4157712;28;20101;-75
2023/08/06 07:11:38;;;;;;;10.15;2.85;;;15.00;99.90;;;14.71;100.00;101722.81;4155388;28;20482;-75
2023/08/06 07:13:39;;;;;;;13.88;2.60;;;15.10;99.90;;;14.70;100.00;101721.97;4187410;28;20035;-76
2023/08/06 07:15:40;;;;;;;10.55;2.53;;;15.20;99.90;;;14.79;100.00;101723.69;4187272;28;20037;-76
2023/08/06 07:17:40;;;;;;;11.43;3.20;;;15.30;99.90;;;14.86;100.00;101718.56;4175342;28;20029;-75
2023/08/06 07:19:41;;;;;;;6.50;1.88;;;15.30;99.90;;;15.02;100.00;101717.78;4167933;28;20053;-76
2023/08/06 07:21:42;;;;;;;13.85;3.15;;;15.40;99.90;;;14.98;100.00;101711.97;4170809;28;20052;-75
2023/08/06 07:23:43;;;;;;;11.95;2.20;;;15.40;99.90;;;15.11;100.00;101725.63;4161569;28;20032;-75
2023/08/06 07:25:45;;;;;;;13.10;2.47;;;15.50;99.90;;;15.05;100.00;101720.97;4170691;28;20018;-75
2023/08/06 07:27:46;;;;;;;14.95;2.95;;;15.50;99.90;;;15.02;100.00;101729.25;4153121;28;20026;-75
2023/08/06 07:29:48;;;;;;;15.68;2.92;;;15.50;99.90;;;15.00;100.00;101731.22;4170622;28;20056;-75
2023/08/06 07:31:50;;;;;;;9.77;2.58;;;15.60;99.90;;;14.99;100.00;101724.28;4170674;28;20052;-76
2023/08/06 07:33:51;;;;;;;9.50;3.20;;;15.60;99.90;;;15.08;100.00;101718.00;4170722;28;20436;-76
2023/08/06 07:35:51;;;;;;;9.95;2.83;;;15.60;99.90;;;15.11;100.00;101717.66;4167878;28;20160;-76
2023/08/06 07:37:53;;;;;;;11.25;2.90;;;15.60;99.90;;;15.14;100.00;101716.50;4170508;28;20037;-76
2023/08/06 07:39:56;;;;;;;13.77;3.42;;;15.60;99.90;;;15.12;100.00;101726.44;4161406;28;20025;-76
2023/08/06 07:41:56;;;;;;;12.05;2.47;;;15.70;99.90;;;15.14;100.00;101719.97;4186956;28;20021;-76
2023/08/06 07:43:57;;;;;;;10.50;2.55;;;15.70;99.90;;;15.16;100.00;101712.69;4186801;28;20503;-76
2023/08/06 07:46:00;;;;;;;9.98;2.85;;;15.70;99.90;;;15.25;100.00;101727.66;4164575;28;20021;-75
2023/08/06 07:48:01;;;;;;;9.25;2.63;;;15.80;99.90;;;15.21;100.00;101726.31;4169707;28;20035;-75
2023/08/06 07:50:02;;;;;;;12.55;3.40;;;15.80;99.90;;;15.25;100.00;101730.31;4181725;28;20039;-75
2023/08/06 07:52:03;;;;;;;12.48;3.97;;;15.80;99.90;;;15.26;100.00;101726.66;4184933;28;20408;-75
2023/08/06 07:54:06;;;;;;;9.63;2.70;;;15.90;99.90;;;15.31;100.00;101727.00;4170287;28;20033;-75
2023/08/06 07:56:06;;;;;;;14.50;2.65;;;15.90;99.90;;;15.39;100.00;101721.72;4153245;28;20401;-76
2023/08/06 07:58:08;;;;;;;9.23;2.72;;;16.00;99.90;;;15.52;100.00;101728.41;4181229;28;20029;-75
2023/08/06 08:00:09;;;;;;;12.20;2.53;;;16.00;99.90;;;15.66;100.00;101731.25;4186653;28;20025;-76
2023/08/06 08:02:10;;;;;;;8.68;2.55;;;16.10;99.90;;;15.62;100.00;101729.91;4168953;28;20120;-76
2023/08/06 08:04:11;;;;;;;11.13;2.10;;;16.20;99.90;;;15.75;100.00;101726.75;4186833;28;20523;-75
2023/08/06 08:06:12;;;;;;;11.75;2.70;;;16.30;99.90;;;15.85;100.00;101724.78;4168728;28;20025;-76
2023/08/06 08:08:13;;;;;;;12.65;2.70;;;16.40;99.90;;;16.00;100.00;101739.09;4155287;28;20034;-76
2023/08/06 08:10:14;;;;;;;7.43;2.38;;;16.50;99.90;;;15.98;100.00;101735.75;4170115;28;20021;-76
2023/08/06 08:12:15;;;;;;;18.67;2.70;;;16.60;99.90;;;16.00;100.00;101734.59;4159335;28;20101;-76
2023/08/06 08:14:16;;;;;;;11.82;2.55;;;16.60;99.90;;;15.98;100.00;101730.41;4169497;28;20386;-76
2023/08/06 08:16:16;;;;;;;13.48;3.80;;;16.60;99.90;;;16.11;100.00;101752.03;4163329;28;20025;-76
2023/08/06 08:18:17;;;;;;;10.82;2.60;;;16.60;99.90;;;16.02;100.00;101743.25;4183419;28;20026;-77